sensor_id;sensor_type;location;lat;lon;timestamp;P1;durP1;ratioP1;P2;durP2;ratioP2
7158;SDS011;63175;52.374;13.132;2023-02-05T00:01:34;4.20;;;2.70;;
7158;SDS011;63175;52.374;13.132;2023-02-05T00:04:01;2.57;;;2.37;;
7158;SDS011;63175;52.374;13.132;2023-02-05T00:06:28;2.70;;;2.50;;
7158;SDS011;63175;52.374;13.132;2023-02-05T00:08:55;3.20;;;2.60;;
7158;SDS011;63175;52.374;13.132;2023-02-05T00:11:22;3.27;;;2.97;;
7158;SDS011;63175;52.374;13.132;2023-02-05T00:13:50;3.73;;;2.50;;
7158;SDS011;63175;52.374;13.132;2023-02-05T00:16:19;3.03;;;2.43;;
7158;SDS011;63175;52.374;13.132;2023-02-05T00:18:49;4.27;;;2.60;;
7158;SDS011;63175;52.374;13.132;2023-02-05T00:21:16;2.77;;;2.30;;
7158;SDS011;63175;52.374;13.132;2023-02-05T00:23:44;4.10;;;2.10;;
7158;SDS011;63175;52.374;13.132;2023-02-05T00:26:11;2.60;;;2.33;;
7158;SDS011;63175;52.374;13.132;2023-02-05T00:28:39;3.00;;;2.00;;
7158;SDS011;63175;52.374;13.132;2023-02-05T00:31:06;5.03;;;2.90;;
7158;SDS011;63175;52.374;13.132;2023-02-05T00:33:35;3.50;;;3.13;;
7158;SDS011;63175;52.374;13.132;2023-02-05T00:36:04;2.57;;;2.37;;
7158;SDS011;63175;52.374;13.132;2023-02-05T00:38:31;2.70;;;2.50;;
7158;SDS011;63175;52.374;13.132;2023-02-05T00:40:58;2.73;;;2.40;;
7158;SDS011;63175;52.374;13.132;2023-02-05T00:43:25;3.57;;;2.50;;
7158;SDS011;63175;52.374;13.132;2023-02-05T00:45:52;3.30;;;2.20;;
7158;SDS011;63175;52.374;13.132;2023-02-05T00:48:19;2.40;;;2.20;;
7158;SDS011;63175;52.374;13.132;2023-02-05T00:50:46;2.80;;;2.10;;
7158;SDS011;63175;52.374;13.132;2023-02-05T00:53:15;2.33;;;2.13;;
7158;SDS011;63175;52.374;13.132;2023-02-05T00:55:42;2.90;;;2.53;;
7158;SDS011;63175;52.374;13.132;2023-02-05T00:58:09;3.47;;;2.80;;
7158;SDS011;63175;52.374;13.132;2023-02-05T01:00:36;4.87;;;2.77;;
7158;SDS011;63175;52.374;13.132;2023-02-05T01:03:03;5.10;;;3.27;;
7158;SDS011;63175;52.374;13.132;2023-02-05T01:05:32;4.03;;;2.87;;
7158;SDS011;63175;52.374;13.132;2023-02-05T01:07:59;7.73;;;2.80;;
7158;SDS011;63175;52.374;13.132;2023-02-05T01:10:28;3.47;;;2.87;;
7158;SDS011;63175;52.374;13.132;2023-02-05T01:12:55;3.77;;;3.47;;
7158;SDS011;63175;52.374;13.132;2023-02-05T01:15:21;5.37;;;2.93;;
7158;SDS011;63175;52.374;13.132;2023-02-05T01:17:48;2.60;;;2.40;;
7158;SDS011;63175;52.374;13.132;2023-02-05T01:20:15;5.17;;;2.97;;
7158;SDS011;63175;52.374;13.132;2023-02-05T01:22:42;4.27;;;2.77;;
7158;SDS011;63175;52.374;13.132;2023-02-05T01:25:09;6.00;;;3.00;;
7158;SDS011;63175;52.374;13.132;2023-02-05T01:27:37;3.30;;;2.63;;
7158;SDS011;63175;52.374;13.132;2023-02-05T01:30:05;3.50;;;2.53;;
7158;SDS011;63175;52.374;13.132;2023-02-05T01:32:32;4.80;;;2.80;;
7158;SDS011;63175;52.374;13.132;2023-02-05T01:34:59;4.67;;;3.07;;
7158;SDS011;63175;52.374;13.132;2023-02-05T01:37:26;3.13;;;2.63;;
7158;SDS011;63175;52.374;13.132;2023-02-05T01:39:53;3.50;;;2.50;;
7158;SDS011;63175;52.374;13.132;2023-02-05T01:42:21;3.10;;;2.67;;
7158;SDS011;63175;52.374;13.132;2023-02-05T01:47:58;4.63;;;2.77;;
7158;SDS011;63175;52.374;13.132;2023-02-05T01:50:26;2.67;;;2.40;;
7158;SDS011;63175;52.374;13.132;2023-02-05T01:52:56;2.43;;;2.23;;
7158;SDS011;63175;52.374;13.132;2023-02-05T01:55:25;2.80;;;2.50;;
7158;SDS011;63175;52.374;13.132;2023-02-05T01:57:54;3.53;;;2.63;;
7158;SDS011;63175;52.374;13.132;2023-02-05T02:00:21;4.27;;;3.03;;
7158;SDS011;63175;52.374;13.132;2023-02-05T02:02:48;3.53;;;2.73;;
7158;SDS011;63175;52.374;13.132;2023-02-05T02:05:17;3.27;;;2.80;;
7158;SDS011;63175;52.374;13.132;2023-02-05T02:07:44;4.87;;;2.63;;
7158;SDS011;63175;52.374;13.132;2023-02-05T02:10:13;6.60;;;3.17;;
7158;SDS011;63175;52.374;13.132;2023-02-05T02:12:42;3.53;;;2.90;;
7158;SDS011;63175;52.374;13.132;2023-02-05T02:15:13;3.80;;;2.60;;
7158;SDS011;63175;52.374;13.132;2023-02-05T02:17:43;3.60;;;2.60;;
7158;SDS011;63175;52.374;13.132;2023-02-05T02:20:13;5.10;;;2.47;;
7158;SDS011;63175;52.374;13.132;2023-02-05T02:22:57;3.17;;;2.63;;
7158;SDS011;63175;52.374;13.132;2023-02-05T02:28:32;4.10;;;2.40;;
7158;SDS011;63175;52.374;13.132;2023-02-05T02:31:05;3.33;;;3.03;;
7158;SDS011;63175;52.374;13.132;2023-02-05T02:33:38;4.00;;;3.13;;
7158;SDS011;63175;52.374;13.132;2023-02-05T02:36:11;3.07;;;2.80;;
7158;SDS011;63175;52.374;13.132;2023-02-05T02:38:43;3.03;;;2.77;;
7158;SDS011;63175;52.374;13.132;2023-02-05T02:41:16;4.07;;;2.90;;
7158;SDS011;63175;52.374;13.132;2023-02-05T02:43:48;6.83;;;3.00;;
7158;SDS011;63175;52.374;13.132;2023-02-05T02:46:20;6.20;;;2.27;;
7158;SDS011;63175;52.374;13.132;2023-02-05T02:48:53;3.83;;;2.83;;
7158;SDS011;63175;52.374;13.132;2023-02-05T02:51:21;3.60;;;2.50;;
7158;SDS011;63175;52.374;13.132;2023-02-05T02:53:51;3.87;;;2.90;;
7158;SDS011;63175;52.374;13.132;2023-02-05T02:56:21;4.00;;;3.57;;
7158;SDS011;63175;52.374;13.132;2023-02-05T02:58:53;5.30;;;3.27;;
7158;SDS011;63175;52.374;13.132;2023-02-05T03:01:23;3.17;;;2.97;;
7158;SDS011;63175;52.374;13.132;2023-02-05T03:03:55;9.03;;;3.97;;
7158;SDS011;63175;52.374;13.132;2023-02-05T03:06:25;6.03;;;2.90;;
7158;SDS011;63175;52.374;13.132;2023-02-05T03:08:55;2.93;;;2.63;;
7158;SDS011;63175;52.374;13.132;2023-02-05T03:11:25;3.30;;;3.00;;
7158;SDS011;63175;52.374;13.132;2023-02-05T03:13:53;3.83;;;2.90;;
7158;SDS011;63175;52.374;13.132;2023-02-05T03:16:21;2.90;;;2.63;;
7158;SDS011;63175;52.374;13.132;2023-02-05T03:18:50;3.53;;;2.80;;
7158;SDS011;63175;52.374;13.132;2023-02-05T03:21:19;3.20;;;2.90;;
7158;SDS011;63175;52.374;13.132;2023-02-05T03:23:49;4.40;;;3.20;;
7158;SDS011;63175;52.374;13.132;2023-02-05T03:26:23;3.20;;;2.23;;
7158;SDS011;63175;52.374;13.132;2023-02-05T03:28:51;4.27;;;2.60;;
7158;SDS011;63175;52.374;13.132;2023-02-05T03:31:21;2.23;;;2.13;;
7158;SDS011;63175;52.374;13.132;2023-02-05T03:33:53;3.60;;;2.90;;
7158;SDS011;63175;52.374;13.132;2023-02-05T03:36:32;4.20;;;2.77;;
7158;SDS011;63175;52.374;13.132;2023-02-05T03:39:10;4.10;;;3.40;;
7158;SDS011;63175;52.374;13.132;2023-02-05T03:41:49;2.83;;;2.60;;
7158;SDS011;63175;52.374;13.132;2023-02-05T03:44:30;3.53;;;2.80;;
7158;SDS011;63175;52.374;13.132;2023-02-05T03:47:13;2.77;;;2.40;;
7158;SDS011;63175;52.374;13.132;2023-02-05T03:49:51;3.17;;;2.60;;
7158;SDS011;63175;52.374;13.132;2023-02-05T03:52:26;2.90;;;2.43;;
7158;SDS011;63175;52.374;13.132;2023-02-05T03:54:59;3.00;;;2.30;;
7158;SDS011;63175;52.374;13.132;2023-02-05T03:57:34;3.30;;;3.00;;
7158;SDS011;63175;52.374;13.132;2023-02-05T04:00:07;3.53;;;2.37;;
7158;SDS011;63175;52.374;13.132;2023-02-05T04:02:35;3.10;;;2.23;;
7158;SDS011;63175;52.374;13.132;2023-02-05T04:05:02;2.30;;;2.10;;
7158;SDS011;63175;52.374;13.132;2023-02-05T04:07:29;5.50;;;2.60;;
7158;SDS011;63175;52.374;13.132;2023-02-05T04:09:55;2.53;;;2.33;;
7158;SDS011;63175;52.374;13.132;2023-02-05T04:12:22;3.13;;;2.83;;
7158;SDS011;63175;52.374;13.132;2023-02-05T04:14:49;3.60;;;2.73;;
7158;SDS011;63175;52.374;13.132;2023-02-05T04:17:17;3.27;;;2.93;;
7158;SDS011;63175;52.374;13.132;2023-02-05T04:19:44;6.30;;;2.70;;
7158;SDS011;63175;52.374;13.132;2023-02-05T04:22:11;3.40;;;3.07;;
7158;SDS011;63175;52.374;13.132;2023-02-05T04:24:38;4.93;;;3.03;;
7158;SDS011;63175;52.374;13.132;2023-02-05T04:27:04;3.53;;;3.23;;
7158;SDS011;63175;52.374;13.132;2023-02-05T04:29:31;2.90;;;2.70;;
7158;SDS011;63175;52.374;13.132;2023-02-05T04:31:58;2.10;;;1.90;;
7158;SDS011;63175;52.374;13.132;2023-02-05T04:34:26;3.43;;;2.80;;
7158;SDS011;63175;52.374;13.132;2023-02-05T04:36:53;2.90;;;2.50;;
7158;SDS011;63175;52.374;13.132;2023-02-05T04:39:20;3.10;;;2.40;;
7158;SDS011;63175;52.374;13.132;2023-02-05T04:41:47;3.30;;;2.60;;
7158;SDS011;63175;52.374;13.132;2023-02-05T04:44:14;3.20;;;2.80;;
7158;SDS011;63175;52.374;13.132;2023-02-05T04:46:41;3.37;;;2.80;;
7158;SDS011;63175;52.374;13.132;2023-02-05T04:49:07;3.07;;;2.87;;
7158;SDS011;63175;52.374;13.132;2023-02-05T04:51:36;3.67;;;2.10;;
7158;SDS011;63175;52.374;13.132;2023-02-05T04:54:03;2.73;;;2.03;;
7158;SDS011;63175;52.374;13.132;2023-02-05T04:56:29;3.07;;;2.83;;
7158;SDS011;63175;52.374;13.132;2023-02-05T04:58:56;3.13;;;2.30;;
7158;SDS011;63175;52.374;13.132;2023-02-05T05:01:23;2.13;;;2.03;;
7158;SDS011;63175;52.374;13.132;2023-02-05T05:03:50;2.40;;;2.20;;
7158;SDS011;63175;52.374;13.132;2023-02-05T05:06:17;3.57;;;2.33;;
7158;SDS011;63175;52.374;13.132;2023-02-05T05:08:45;2.30;;;2.13;;
7158;SDS011;63175;52.374;13.132;2023-02-05T05:11:13;3.67;;;2.30;;
7158;SDS011;63175;52.374;13.132;2023-02-05T05:13:42;3.70;;;3.10;;
7158;SDS011;63175;52.374;13.132;2023-02-05T05:16:09;3.30;;;2.43;;
7158;SDS011;63175;52.374;13.132;2023-02-05T05:18:37;3.90;;;2.50;;
7158;SDS011;63175;52.374;13.132;2023-02-05T05:21:05;3.80;;;2.13;;
7158;SDS011;63175;52.374;13.132;2023-02-05T05:23:33;3.77;;;2.20;;
7158;SDS011;63175;52.374;13.132;2023-02-05T05:26:04;2.37;;;2.27;;
7158;SDS011;63175;52.374;13.132;2023-02-05T05:28:31;2.57;;;2.40;;
7158;SDS011;63175;52.374;13.132;2023-02-05T05:30:59;3.60;;;2.87;;
7158;SDS011;63175;52.374;13.132;2023-02-05T05:33:30;2.17;;;2.03;;
7158;SDS011;63175;52.374;13.132;2023-02-05T05:35:57;2.50;;;2.30;;
7158;SDS011;63175;52.374;13.132;2023-02-05T05:38:24;3.60;;;2.10;;
7158;SDS011;63175;52.374;13.132;2023-02-05T05:40:51;2.87;;;2.60;;
7158;SDS011;63175;52.374;13.132;2023-02-05T05:43:36;2.57;;;2.33;;
7158;SDS011;63175;52.374;13.132;2023-02-05T05:46:13;2.40;;;2.10;;
7158;SDS011;63175;52.374;13.132;2023-02-05T05:48:45;5.10;;;2.47;;
7158;SDS011;63175;52.374;13.132;2023-02-05T05:51:13;2.17;;;2.07;;
7158;SDS011;63175;52.374;13.132;2023-02-05T05:53:40;2.63;;;2.43;;
7158;SDS011;63175;52.374;13.132;2023-02-05T05:56:07;2.47;;;2.27;;
7158;SDS011;63175;52.374;13.132;2023-02-05T05:58:34;4.00;;;2.50;;
7158;SDS011;63175;52.374;13.132;2023-02-05T06:01:02;2.47;;;2.27;;
7158;SDS011;63175;52.374;13.132;2023-02-05T06:03:30;2.77;;;2.57;;
7158;SDS011;63175;52.374;13.132;2023-02-05T06:05:58;3.57;;;2.20;;
7158;SDS011;63175;52.374;13.132;2023-02-05T06:08:26;2.37;;;2.17;;
7158;SDS011;63175;52.374;13.132;2023-02-05T06:10:53;2.40;;;2.20;;
7158;SDS011;63175;52.374;13.132;2023-02-05T06:13:20;3.33;;;1.87;;
7158;SDS011;63175;52.374;13.132;2023-02-05T06:15:46;6.30;;;1.93;;
7158;SDS011;63175;52.374;13.132;2023-02-05T06:18:15;3.00;;;2.70;;
7158;SDS011;63175;52.374;13.132;2023-02-05T06:20:42;2.60;;;2.40;;
7158;SDS011;63175;52.374;13.132;2023-02-05T06:23:09;2.93;;;2.13;;
7158;SDS011;63175;52.374;13.132;2023-02-05T06:25:36;2.73;;;2.10;;
7158;SDS011;63175;52.374;13.132;2023-02-05T06:28:03;2.90;;;2.30;;
7158;SDS011;63175;52.374;13.132;2023-02-05T06:30:30;2.43;;;2.23;;
7158;SDS011;63175;52.374;13.132;2023-02-05T06:32:57;1.97;;;1.87;;
7158;SDS011;63175;52.374;13.132;2023-02-05T06:35:25;2.27;;;2.07;;
7158;SDS011;63175;52.374;13.132;2023-02-05T06:37:52;2.07;;;1.97;;
7158;SDS011;63175;52.374;13.132;2023-02-05T06:40:19;2.40;;;2.03;;
7158;SDS011;63175;52.374;13.132;2023-02-05T06:42:46;2.70;;;2.00;;
7158;SDS011;63175;52.374;13.132;2023-02-05T06:45:13;2.40;;;1.90;;
7158;SDS011;63175;52.374;13.132;2023-02-05T06:47:40;1.97;;;1.87;;
7158;SDS011;63175;52.374;13.132;2023-02-05T06:50:07;2.37;;;1.97;;
7158;SDS011;63175;52.374;13.132;2023-02-05T06:52:36;3.03;;;2.10;;
7158;SDS011;63175;52.374;13.132;2023-02-05T06:55:03;2.43;;;2.00;;
7158;SDS011;63175;52.374;13.132;2023-02-05T06:57:30;2.23;;;1.63;;
7158;SDS011;63175;52.374;13.132;2023-02-05T06:59:57;1.87;;;1.77;;
7158;SDS011;63175;52.374;13.132;2023-02-05T07:02:24;2.10;;;1.73;;
7158;SDS011;63175;52.374;13.132;2023-02-05T07:04:51;2.03;;;1.90;;
7158;SDS011;63175;52.374;13.132;2023-02-05T07:07:18;2.30;;;2.10;;
7158;SDS011;63175;52.374;13.132;2023-02-05T07:09:46;2.20;;;1.70;;
7158;SDS011;63175;52.374;13.132;2023-02-05T07:12:13;2.63;;;2.43;;
7158;SDS011;63175;52.374;13.132;2023-02-05T07:14:40;1.50;;;1.40;;
7158;SDS011;63175;52.374;13.132;2023-02-05T07:17:07;3.07;;;2.00;;
7158;SDS011;63175;52.374;13.132;2023-02-05T07:19:34;2.50;;;2.30;;
7158;SDS011;63175;52.374;13.132;2023-02-05T07:22:02;4.80;;;3.00;;
7158;SDS011;63175;52.374;13.132;2023-02-05T07:24:29;2.97;;;2.70;;
7158;SDS011;63175;52.374;13.132;2023-02-05T07:26:57;3.83;;;2.40;;
7158;SDS011;63175;52.374;13.132;2023-02-05T07:29:24;3.37;;;2.80;;
7158;SDS011;63175;52.374;13.132;2023-02-05T07:31:52;3.90;;;2.20;;
7158;SDS011;63175;52.374;13.132;2023-02-05T07:34:19;2.50;;;2.20;;
7158;SDS011;63175;52.374;13.132;2023-02-05T07:36:48;2.17;;;1.93;;
7158;SDS011;63175;52.374;13.132;2023-02-05T07:39:15;2.03;;;1.90;;
7158;SDS011;63175;52.374;13.132;2023-02-05T07:41:42;2.90;;;2.60;;
7158;SDS011;63175;52.374;13.132;2023-02-05T07:44:10;8.70;;;4.17;;
7158;SDS011;63175;52.374;13.132;2023-02-05T07:46:37;3.70;;;3.03;;
7158;SDS011;63175;52.374;13.132;2023-02-05T07:49:04;3.23;;;2.87;;
7158;SDS011;63175;52.374;13.132;2023-02-05T07:51:31;3.40;;;2.50;;
7158;SDS011;63175;52.374;13.132;2023-02-05T07:53:58;3.20;;;2.33;;
7158;SDS011;63175;52.374;13.132;2023-02-05T07:56:25;5.97;;;2.83;;
7158;SDS011;63175;52.374;13.132;2023-02-05T07:58:52;3.23;;;2.93;;
7158;SDS011;63175;52.374;13.132;2023-02-05T08:01:20;3.37;;;2.53;;
7158;SDS011;63175;52.374;13.132;2023-02-05T08:03:47;1.93;;;1.73;;
7158;SDS011;63175;52.374;13.132;2023-02-05T08:06:14;3.50;;;2.20;;
7158;SDS011;63175;52.374;13.132;2023-02-05T08:08:41;2.87;;;2.07;;
7158;SDS011;63175;52.374;13.132;2023-02-05T08:11:10;2.40;;;2.07;;
7158;SDS011;63175;52.374;13.132;2023-02-05T08:13:40;2.47;;;1.90;;
7158;SDS011;63175;52.374;13.132;2023-02-05T08:16:07;2.77;;;1.83;;
7158;SDS011;63175;52.374;13.132;2023-02-05T08:18:35;2.20;;;2.00;;
7158;SDS011;63175;52.374;13.132;2023-02-05T08:21:02;2.70;;;2.50;;
7158;SDS011;63175;52.374;13.132;2023-02-05T08:23:29;3.43;;;2.80;;
7158;SDS011;63175;52.374;13.132;2023-02-05T08:25:56;2.77;;;2.57;;
7158;SDS011;63175;52.374;13.132;2023-02-05T08:28:24;3.10;;;2.87;;
7158;SDS011;63175;52.374;13.132;2023-02-05T08:30:52;3.60;;;2.50;;
7158;SDS011;63175;52.374;13.132;2023-02-05T08:33:20;2.50;;;2.30;;
7158;SDS011;63175;52.374;13.132;2023-02-05T08:35:48;2.63;;;2.43;;
7158;SDS011;63175;52.374;13.132;2023-02-05T08:38:15;3.60;;;3.03;;
7158;SDS011;63175;52.374;13.132;2023-02-05T08:40:42;4.13;;;3.73;;
7158;SDS011;63175;52.374;13.132;2023-02-05T08:43:09;3.33;;;3.03;;
7158;SDS011;63175;52.374;13.132;2023-02-05T08:45:36;3.73;;;2.17;;
7158;SDS011;63175;52.374;13.132;2023-02-05T08:48:03;2.37;;;2.17;;
7158;SDS011;63175;52.374;13.132;2023-02-05T08:50:30;2.60;;;2.23;;
7158;SDS011;63175;52.374;13.132;2023-02-05T08:52:58;2.57;;;2.40;;
7158;SDS011;63175;52.374;13.132;2023-02-05T08:55:25;2.37;;;2.17;;
7158;SDS011;63175;52.374;13.132;2023-02-05T08:57:51;3.20;;;2.80;;
7158;SDS011;63175;52.374;13.132;2023-02-05T09:00:19;3.10;;;2.80;;
7158;SDS011;63175;52.374;13.132;2023-02-05T09:02:47;3.47;;;2.70;;
7158;SDS011;63175;52.374;13.132;2023-02-05T09:05:13;3.23;;;2.20;;
7158;SDS011;63175;52.374;13.132;2023-02-05T09:07:40;4.20;;;2.90;;
7158;SDS011;63175;52.374;13.132;2023-02-05T09:10:10;5.70;;;2.80;;
7158;SDS011;63175;52.374;13.132;2023-02-05T09:12:38;2.53;;;2.33;;
7158;SDS011;63175;52.374;13.132;2023-02-05T09:15:05;4.00;;;2.43;;
7158;SDS011;63175;52.374;13.132;2023-02-05T09:17:33;2.10;;;2.00;;
7158;SDS011;63175;52.374;13.132;2023-02-05T09:20:00;2.53;;;2.30;;
7158;SDS011;63175;52.374;13.132;2023-02-05T09:22:27;6.20;;;2.17;;
7158;SDS011;63175;52.374;13.132;2023-02-05T09:24:54;5.30;;;2.17;;
7158;SDS011;63175;52.374;13.132;2023-02-05T09:27:22;3.10;;;1.90;;
7158;SDS011;63175;52.374;13.132;2023-02-05T09:29:49;2.70;;;2.47;;
7158;SDS011;63175;52.374;13.132;2023-02-05T09:32:16;2.23;;;2.03;;
7158;SDS011;63175;52.374;13.132;2023-02-05T09:34:43;3.40;;;1.90;;
7158;SDS011;63175;52.374;13.132;2023-02-05T09:37:09;2.73;;;2.43;;
7158;SDS011;63175;52.374;13.132;2023-02-05T09:39:36;2.07;;;1.60;;
7158;SDS011;63175;52.374;13.132;2023-02-05T09:42:07;3.40;;;2.63;;
7158;SDS011;63175;52.374;13.132;2023-02-05T09:47:33;2.30;;;2.07;;
7158;SDS011;63175;52.374;13.132;2023-02-05T09:50:09;2.60;;;1.90;;
7158;SDS011;63175;52.374;13.132;2023-02-05T09:52:40;2.33;;;2.13;;
7158;SDS011;63175;52.374;13.132;2023-02-05T09:55:13;3.17;;;1.90;;
7158;SDS011;63175;52.374;13.132;2023-02-05T09:57:45;2.13;;;1.93;;
7158;SDS011;63175;52.374;13.132;2023-02-05T10:00:15;2.50;;;2.30;;
7158;SDS011;63175;52.374;13.132;2023-02-05T10:02:46;2.27;;;2.07;;
7158;SDS011;63175;52.374;13.132;2023-02-05T10:05:16;2.30;;;1.70;;
7158;SDS011;63175;52.374;13.132;2023-02-05T10:07:49;1.83;;;1.73;;
7158;SDS011;63175;52.374;13.132;2023-02-05T10:10:24;1.70;;;1.60;;
7158;SDS011;63175;52.374;13.132;2023-02-05T10:12:56;2.37;;;2.13;;
7158;SDS011;63175;52.374;13.132;2023-02-05T10:15:55;2.10;;;2.00;;
7158;SDS011;63175;52.374;13.132;2023-02-05T10:18:38;1.90;;;1.80;;
7158;SDS011;63175;52.374;13.132;2023-02-05T10:21:16;2.33;;;1.77;;
7158;SDS011;63175;52.374;13.132;2023-02-05T10:23:59;3.03;;;2.20;;
7158;SDS011;63175;52.374;13.132;2023-02-05T10:26:40;3.30;;;2.70;;
7158;SDS011;63175;52.374;13.132;2023-02-05T10:29:14;4.30;;;2.70;;
7158;SDS011;63175;52.374;13.132;2023-02-05T10:31:53;2.73;;;2.33;;
7158;SDS011;63175;52.374;13.132;2023-02-05T10:34:35;1.90;;;1.80;;
7158;SDS011;63175;52.374;13.132;2023-02-05T10:37:26;2.33;;;2.13;;
7158;SDS011;63175;52.374;13.132;2023-02-05T10:40:09;2.00;;;1.57;;
7158;SDS011;63175;52.374;13.132;2023-02-05T10:42:39;1.80;;;1.70;;
7158;SDS011;63175;52.374;13.132;2023-02-05T10:45:12;2.83;;;1.80;;
7158;SDS011;63175;52.374;13.132;2023-02-05T10:47:52;4.13;;;2.60;;
7158;SDS011;63175;52.374;13.132;2023-02-05T10:50:28;3.33;;;2.03;;
7158;SDS011;63175;52.374;13.132;2023-02-05T10:53:01;3.53;;;1.80;;
7158;SDS011;63175;52.374;13.132;2023-02-05T10:55:28;1.63;;;1.53;;
7158;SDS011;63175;52.374;13.132;2023-02-05T10:57:55;3.47;;;2.47;;
7158;SDS011;63175;52.374;13.132;2023-02-05T11:00:23;2.40;;;2.20;;
7158;SDS011;63175;52.374;13.132;2023-02-05T11:02:52;4.30;;;2.43;;
7158;SDS011;63175;52.374;13.132;2023-02-05T11:05:23;2.73;;;2.50;;
7158;SDS011;63175;52.374;13.132;2023-02-05T11:07:57;1.63;;;1.47;;
7158;SDS011;63175;52.374;13.132;2023-02-05T11:10:24;6.80;;;3.67;;
7158;SDS011;63175;52.374;13.132;2023-02-05T11:12:52;4.40;;;3.10;;
7158;SDS011;63175;52.374;13.132;2023-02-05T11:15:22;2.33;;;2.13;;
7158;SDS011;63175;52.374;13.132;2023-02-05T11:17:53;1.90;;;1.80;;
7158;SDS011;63175;52.374;13.132;2023-02-05T11:20:23;3.43;;;1.80;;
7158;SDS011;63175;52.374;13.132;2023-02-05T11:23:07;1.80;;;1.30;;
7158;SDS011;63175;52.374;13.132;2023-02-05T11:25:47;1.63;;;1.53;;
7158;SDS011;63175;52.374;13.132;2023-02-05T11:28:18;2.37;;;1.97;;
7158;SDS011;63175;52.374;13.132;2023-02-05T11:30:48;2.67;;;1.83;;
7158;SDS011;63175;52.374;13.132;2023-02-05T11:33:21;3.03;;;1.43;;
7158;SDS011;63175;52.374;13.132;2023-02-05T11:35:54;6.33;;;2.40;;
7158;SDS011;63175;52.374;13.132;2023-02-05T11:38:23;2.40;;;2.20;;
7158;SDS011;63175;52.374;13.132;2023-02-05T11:40:54;2.70;;;1.93;;
7158;SDS011;63175;52.374;13.132;2023-02-05T11:43:25;1.93;;;1.60;;
7158;SDS011;63175;52.374;13.132;2023-02-05T11:45:53;3.73;;;1.20;;
7158;SDS011;63175;52.374;13.132;2023-02-05T11:48:30;2.03;;;1.30;;
7158;SDS011;63175;52.374;13.132;2023-02-05T11:51:02;1.20;;;1.10;;
7158;SDS011;63175;52.374;13.132;2023-02-05T11:53:31;1.77;;;1.30;;
7158;SDS011;63175;52.374;13.132;2023-02-05T11:56:00;1.40;;;1.30;;
7158;SDS011;63175;52.374;13.132;2023-02-05T11:58:29;4.73;;;1.20;;
7158;SDS011;63175;52.374;13.132;2023-02-05T12:00:58;1.40;;;1.30;;
7158;SDS011;63175;52.374;13.132;2023-02-05T12:03:26;1.47;;;1.37;;
7158;SDS011;63175;52.374;13.132;2023-02-05T12:05:59;4.97;;;1.60;;
7158;SDS011;63175;52.374;13.132;2023-02-05T12:08:35;1.53;;;1.30;;
7158;SDS011;63175;52.374;13.132;2023-02-05T12:11:12;4.70;;;1.40;;
7158;SDS011;63175;52.374;13.132;2023-02-05T12:13:54;1.27;;;1.17;;
7158;SDS011;63175;52.374;13.132;2023-02-05T12:16:41;1.70;;;1.20;;
7158;SDS011;63175;52.374;13.132;2023-02-05T12:19:19;1.70;;;1.13;;
7158;SDS011;63175;52.374;13.132;2023-02-05T12:21:48;1.30;;;1.20;;
7158;SDS011;63175;52.374;13.132;2023-02-05T12:24:23;1.20;;;1.10;;
7158;SDS011;63175;52.374;13.132;2023-02-05T12:27:12;3.70;;;1.90;;
7158;SDS011;63175;52.374;13.132;2023-02-05T12:29:53;2.50;;;1.60;;
7158;SDS011;63175;52.374;13.132;2023-02-05T12:32:31;1.77;;;1.67;;
7158;SDS011;63175;52.374;13.132;2023-02-05T12:35:12;1.37;;;1.27;;
7158;SDS011;63175;52.374;13.132;2023-02-05T12:37:51;1.57;;;1.43;;
7158;SDS011;63175;52.374;13.132;2023-02-05T12:40:29;6.60;;;2.17;;
7158;SDS011;63175;52.374;13.132;2023-02-05T12:43:09;2.53;;;2.23;;
7158;SDS011;63175;52.374;13.132;2023-02-05T12:45:54;1.63;;;1.53;;
7158;SDS011;63175;52.374;13.132;2023-02-05T12:48:38;1.93;;;1.57;;
7158;SDS011;63175;52.374;13.132;2023-02-05T12:51:20;1.63;;;1.40;;
7158;SDS011;63175;52.374;13.132;2023-02-05T12:54:20;1.33;;;1.10;;
7158;SDS011;63175;52.374;13.132;2023-02-05T12:56:59;1.70;;;1.60;;
7158;SDS011;63175;52.374;13.132;2023-02-05T12:59:34;1.40;;;1.30;;
7158;SDS011;63175;52.374;13.132;2023-02-05T13:02:05;4.17;;;1.50;;
7158;SDS011;63175;52.374;13.132;2023-02-05T13:04:42;1.47;;;1.37;;
7158;SDS011;63175;52.374;13.132;2023-02-05T13:07:17;4.53;;;2.03;;
7158;SDS011;63175;52.374;13.132;2023-02-05T13:09:54;2.60;;;1.90;;
7158;SDS011;63175;52.374;13.132;2023-02-05T13:12:25;2.40;;;1.60;;
7158;SDS011;63175;52.374;13.132;2023-02-05T13:15:00;2.00;;;1.30;;
7158;SDS011;63175;52.374;13.132;2023-02-05T13:17:33;3.73;;;1.70;;
7158;SDS011;63175;52.374;13.132;2023-02-05T13:20:04;2.13;;;1.93;;
7158;SDS011;63175;52.374;13.132;2023-02-05T13:22:35;1.80;;;1.70;;
7158;SDS011;63175;52.374;13.132;2023-02-05T13:25:24;6.40;;;1.63;;
7158;SDS011;63175;52.374;13.132;2023-02-05T13:28:22;1.57;;;1.40;;
7158;SDS011;63175;52.374;13.132;2023-02-05T13:31:21;1.80;;;1.70;;
7158;SDS011;63175;52.374;13.132;2023-02-05T13:33:52;1.90;;;1.80;;
7158;SDS011;63175;52.374;13.132;2023-02-05T13:36:38;2.77;;;2.50;;
7158;SDS011;63175;52.374;13.132;2023-02-05T13:39:47;2.30;;;2.10;;
7158;SDS011;63175;52.374;13.132;2023-02-05T13:45:51;2.70;;;1.60;;
7158;SDS011;63175;52.374;13.132;2023-02-05T13:51:44;1.93;;;1.60;;
7158;SDS011;63175;52.374;13.132;2023-02-05T13:54:28;2.00;;;1.80;;
7158;SDS011;63175;52.374;13.132;2023-02-05T13:57:26;1.50;;;1.40;;
7158;SDS011;63175;52.374;13.132;2023-02-05T14:00:18;2.70;;;1.50;;
7158;SDS011;63175;52.374;13.132;2023-02-05T14:02:46;3.30;;;2.10;;
7158;SDS011;63175;52.374;13.132;2023-02-05T14:05:14;1.70;;;1.60;;
7158;SDS011;63175;52.374;13.132;2023-02-05T14:07:52;1.93;;;1.20;;
7158;SDS011;63175;52.374;13.132;2023-02-05T14:10:25;1.97;;;1.20;;
7158;SDS011;63175;52.374;13.132;2023-02-05T14:12:53;1.50;;;1.07;;
7158;SDS011;63175;52.374;13.132;2023-02-05T14:15:36;2.30;;;1.47;;
7158;SDS011;63175;52.374;13.132;2023-02-05T14:18:05;5.63;;;1.37;;
7158;SDS011;63175;52.374;13.132;2023-02-05T14:20:34;2.10;;;1.57;;
7158;SDS011;63175;52.374;13.132;2023-02-05T14:23:02;1.30;;;1.27;;
7158;SDS011;63175;52.374;13.132;2023-02-05T14:28:46;2.10;;;1.50;;
7158;SDS011;63175;52.374;13.132;2023-02-05T14:36:53;1.23;;;1.10;;
7158;SDS011;63175;52.374;13.132;2023-02-05T14:39:24;4.17;;;3.27;;
7158;SDS011;63175;52.374;13.132;2023-02-05T14:41:55;3.30;;;1.93;;
7158;SDS011;63175;52.374;13.132;2023-02-05T14:44:26;1.30;;;1.20;;
7158;SDS011;63175;52.374;13.132;2023-02-05T14:46:55;2.20;;;1.20;;
7158;SDS011;63175;52.374;13.132;2023-02-05T14:49:28;1.10;;;0.83;;
7158;SDS011;63175;52.374;13.132;2023-02-05T14:52:02;2.50;;;1.00;;
7158;SDS011;63175;52.374;13.132;2023-02-05T14:54:32;2.50;;;1.20;;
7158;SDS011;63175;52.374;13.132;2023-02-05T14:57:13;1.03;;;0.93;;
7158;SDS011;63175;52.374;13.132;2023-02-05T14:59:48;0.80;;;0.80;;
7158;SDS011;63175;52.374;13.132;2023-02-05T15:05:20;1.30;;;1.20;;
7158;SDS011;63175;52.374;13.132;2023-02-05T15:07:59;1.80;;;1.37;;
7158;SDS011;63175;52.374;13.132;2023-02-05T15:10:35;1.90;;;1.00;;
7158;SDS011;63175;52.374;13.132;2023-02-05T15:13:11;3.37;;;0.97;;
7158;SDS011;63175;52.374;13.132;2023-02-05T15:15:39;1.00;;;0.90;;
7158;SDS011;63175;52.374;13.132;2023-02-05T15:18:23;2.70;;;1.03;;
7158;SDS011;63175;52.374;13.132;2023-02-05T15:20:54;1.20;;;1.10;;
7158;SDS011;63175;52.374;13.132;2023-02-05T15:23:28;1.20;;;1.13;;
7158;SDS011;63175;52.374;13.132;2023-02-05T15:26:00;1.43;;;1.00;;
7158;SDS011;63175;52.374;13.132;2023-02-05T15:28:33;0.93;;;0.93;;
7158;SDS011;63175;52.374;13.132;2023-02-05T15:33:53;3.13;;;2.83;;
7158;SDS011;63175;52.374;13.132;2023-02-05T15:36:25;4.03;;;2.37;;
7158;SDS011;63175;52.374;13.132;2023-02-05T15:39:06;3.43;;;1.90;;
7158;SDS011;63175;52.374;13.132;2023-02-05T15:41:40;2.03;;;1.50;;